Thornville, Ohio
Current Conditions -  °F | °C
As of 1:54 PM on Thursday 30 Oct 2014 (Local Time) from KVTA Reporting Station
Overcast Overcast  
Wind Chill: 50°   Ceiling: 4000
Heat Index: 50°   Visibility: 10mi
Dew Point: 32°   Wind: 3mph
Humidity: 50%   Direction: 270°W
Pressure: 30.1"   Gusts: NA
Location:  39.9°N, 82.42°W
Report Text: KVTA 301754Z AUTO 27003KT 10SM OVC040 10/00 A3010 RMK AO2 SLP197 I6000 T01000000 10100 20000 58013
Loading
Personal Weather Stations






























Interactive Weather Map
Tropical Storm Tracking
New forecast layout! Learn more

10-Day Weather Forecast

Advertisements
Track Severe Weather on mobile